Lake City, Michigan
Current Conditions -  °F | °C
As of 4:35 AM on Thursday 27 Nov 2014 (Local Time) from KCAD Reporting Station
Light Snow Light Snow  
Wind Chill: 25°   Ceiling: 2100
Heat Index: 25°   Visibility: 3mi
Dew Point: 22°   Wind: 3mph
Humidity: 89%   Direction: 260°W
Pressure: 30.09"   Gusts: NA
Location:  44.34°N, 85.22°W
Report Text: KCAD 270935Z AUTO 26003KT 3SM -SN OVC021 M03/M05 A3009 RMK AO2 T10401055
Loading
Personal Weather Stations






























Interactive Weather Map New forecast layout! Learn more

10-Day Weather Forecast

Advertisements
Track Severe Weather on mobile